Latest Coastal Weather Observations for Weipa

IDQ60701

Issued at 10:15 pm EST Thursday 30 October 2014 (issued every 10 minutes, with the page automatically refreshed every 10 minutes)

About coastal observations | Map of coastal stations | Coastal observations for QLD | Marine services | Other Formats
Station Details ID: 027045 Name: WEIPA AERO Lat: -12.68 Lon: 141.92 Height: 17.96 m
Data from the previous 72 hours. | See also: Recent months at Weipa
Date/Time
EST
Temp

°C
Wind Pressure Rain
since 9am
mm
Weather Cloud Vis
km
Sea
Height
m
Swell
Dir
 
Speed
knots
Gust
knots
hPa Trend Height
m
Period
s
Dir
30/10:00pm 24.1 E 0 1 1011.5 - 0.0 - - 10 - - - -
30/09:30pm 24.3 ESE 3 3 1011.3 - 0.0 - - 10 - - - -
30/09:00pm 25.0 CALM 0 2 1010.8 - 0.0 - - 10 - - - -
30/08:30pm 25.3 W 2 3 1010.8 - 0.0 - - 10 - - - -
30/08:00pm 25.8 W 2 3 1010.3 - 0.0 - - 10 - - - -
30/07:30pm 26.0 W 2 4 1009.9 - 0.0 - - 10 - - - -
30/07:00pm 26.4 W 3 6 1009.3 - 0.0 - - 10 - - - -
30/06:30pm 26.8 W 5 9 1008.9 - 0.0 - - 10 - - - -
30/06:00pm 27.4 W 8 12 1008.1 - 0.0 - - 10 - - - -
30/05:30pm 27.6 W 8 15 1008.0 - 0.0 - - 10 - - - -
30/05:00pm 28.6 W 9 17 1007.7 - 0.0 - - 10 - - - -
30/04:30pm 28.9 W 10 17 1007.5 - 0.0 - - 10 - - - -
30/04:00pm 29.5 W 13 21 1007.3 - 0.0 - - 10 - - - -
30/03:30pm 32.1 W 9 15 1007.3 - 0.0 - - 10 - - - -
30/03:00pm 35.6 ENE 9 14 1007.0 F 0.0 Haze Mostly clear 9 - - - -
30/02:30pm 35.0 ENE 8 13 1007.6 - 0.0 - Mostly clear 7 - - - -
30/02:00pm 34.8 ESE 5 14 1008.1 - 0.0 - Mostly clear 7 - - - -
30/01:00pm 33.0 E 5 11 1009.3 - 0.0 - Mostly clear 6 - - - -
30/12:30pm 32.9 ENE 5 13 1009.9 - 0.0 - - 7 - - - -
30/12:00pm 32.0 ESE 7 13 1010.4 F 0.0 Haze Mostly clear 8 - - - -
30/11:30am 30.9 ENE 7 15 1011.0 - 0.0 - - 9 - - - -
30/11:00am 30.8 E 7 13 1011.4 - 0.0 - Mostly clear 10 - - - -
30/10:30am 29.5 E 7 12 1011.7 - 0.0 - - 10 - - - -
30/10:00am 29.2 ESE 8 14 1012.2 - 0.0 - Mostly clear 10 - - - -
30/09:30am 28.0 E 9 14 1012.7 - 0.0 - - 10 - - - -
30/09:00am 26.9 E 10 15 1012.7 F 0.0 Fine Mostly cloudy 30 - - - -
30/08:30am 25.6 E 10 14 1012.8 - 0.0 - - 10 - - - -
30/08:00am 24.7 E 8 12 1012.7 - 0.0 - - 10 - - - -
30/07:30am 23.6 ESE 6 9 1012.7 - 0.0 - - 10 - - - -
30/07:00am 21.6 E 3 4 1012.2 - 0.0 Smoke Mostly cloudy 5 - - - -
30/06:30am 20.6 ESE 2 3 1012.0 - 0.0 Smoke Partly cloudy 2 - - - -
30/06:00am 20.3 SE 2 3 1011.5 F 0.0 Haze Partly cloudy 2 - - - -
30/05:30am 20.7 E 3 4 1011.3 - 0.0 - - 5 - - - -
30/05:09am 20.8 E 4 5 1011.1 - 0.0 - - 6 - - - -
30/05:00am 20.9 E 3 5 1011.1 - 0.0 - - 7 - - - -
30/04:30am 21.3 E 4 5 1010.9 - 0.0 - - 10 - - - -
30/04:00am 21.5 E 3 5 1010.8 - 0.0 - - 10 - - - -
30/03:30am 21.9 E 3 4 1010.9 - 0.0 - - 10 - - - -
30/03:00am 22.3 E 5 6 1010.7 - 0.0 - - 10 - - - -
30/02:30am 22.6 E 5 6 1011.0 - 0.0 - - 10 - - - -
30/02:00am 22.8 E 4 7 1011.3 - 0.0 - - 10 - - - -
30/01:30am 23.1 E 4 6 1011.5 - 0.0 - - 10 - - - -
30/01:00am 23.2 ENE 4 6 1011.8 - 0.0 - - 10 - - - -
30/12:30am 23.3 ENE 3 5 1011.9 - 0.0 - - 10 - - - -
30/12:00am 23.4 ENE 3 5 1011.8 - 0.0 - - 10 - - - -
 
Date/Time
EST
Temp

°C
Wind Pressure Rain
since 9am
mm
Weather Cloud Vis
km
Sea
Height
m
Swell
Dir
 
Speed
knots
Gust
knots
hPa Trend Height
m
Period
s
Dir
29/11:30pm 23.4 NE 3 4 1012.1 - 0.0 - - 8 - - - -
29/11:00pm 23.1 NE 1 2 1012.2 - 0.0 - - 9 - - - -
29/10:30pm 24.0 ENE 1 2 1012.4 - 0.0 - Partly cloudy 10 - - - -
29/10:00pm 24.4 CALM 0 1 1012.5 - 0.0 - Partly cloudy 10 - - - -
29/09:30pm 24.4 ENE 1 2 1012.5 - 0.0 - Cloudy 10 - - - -
29/09:00pm 24.7 SE 1 3 1012.1 - 0.0 - Mostly clear 10 - - - -
29/08:30pm 25.0 E 1 2 1012.0 - 0.0 - - 10 - - - -
29/08:00pm 25.7 WNW 1 1 1011.6 - 0.0 - - 10 - - - -
29/07:30pm 26.0 WNW 2 3 1011.2 - 0.0 - - 10 - - - -
29/07:00pm 26.5 WNW 3 6 1010.7 - 0.0 - - 10 - - - -
29/06:30pm 26.9 W 5 8 1010.3 - 0.0 - - 10 - - - -
29/06:00pm 27.2 W 7 11 1009.6 - 0.0 - - 10 - - - -
29/05:30pm 27.7 W 9 15 1009.5 - 0.0 - - 10 - - - -
29/05:00pm 28.2 W 9 15 1009.2 - 0.0 - - 10 - - - -
29/04:30pm 28.2 W 10 17 1009.2 - 0.0 - - 10 - - - -
29/04:00pm 28.7 W 11 19 1009.0 - 0.0 - - 10 - - - -
29/03:30pm 29.8 W 11 18 1009.1 - 0.0 - - 10 - - - -
29/03:00pm 34.2 ENE 6 12 1008.5 F 0.0 Haze Mostly clear 6 - - - -
29/02:30pm 33.7 E 4 9 1009.0 - 0.0 - - 10 - - - -
29/02:00pm 32.7 NE 7 13 1009.5 - 0.0 - Mostly clear 8 - - - -
29/01:30pm 33.2 NE 11 15 1009.9 - 0.0 - - 10 - - - -
29/01:00pm 32.9 E 10 13 1010.4 - 0.0 - - 10 - - - -
29/12:30pm 30.9 SE 5 13 1010.9 - 0.0 - - 10 - - - -
29/12:00pm 31.2 NNE 7 14 1011.4 F 0.0 Haze Mostly cloudy 10 - - - -
29/11:30am 29.7 ENE 8 14 1012.2 - 0.0 - Partly cloudy 10 - - - -
29/11:00am 30.1 ENE 8 16 1012.6 - 0.0 - Partly cloudy 10 - - - -
29/10:30am 28.5 E 5 14 1012.9 - 0.0 - Partly cloudy 10 - - - -
29/10:00am 27.3 E 7 11 1013.3 - 0.0 - Partly cloudy 10 - - - -
29/09:30am 26.6 E 6 11 1013.5 - 0.0 - - 10 - - - -
29/09:00am 26.6 ESE 3 8 1013.6 F 0.0 Haze Mostly cloudy 25 - - - -
29/08:30am 25.7 ESE 5 7 1013.8 - 0.0 - - 10 - - - -
29/08:00am 24.6 SE 4 7 1013.6 - 0.0 - Mostly clear 10 - - - -
29/07:30am 23.1 ESE 4 5 1013.3 - 0.0 - - 10 - - - -
29/07:00am 21.3 SE 2 3 1012.8 - 0.0 - Mostly cloudy 8 - - - -
29/06:30am 19.8 ESE 2 3 1012.5 - 0.0 Shallow fog Mostly cloudy 1 - - - -
29/06:00am 18.8 ESE 1 2 1012.1 F 0.0 Shallow fog Mostly cloudy 4 - - - -
29/05:57am 18.8 ESE 1 2 1012.2 - 0.0 - - 7 - - - -
29/05:30am 19.1 ESE 3 3 1011.8 - 0.0 - - 6 - - - -
29/05:18am 19.2 SE 3 3 1011.7 - 0.0 - - 6 - - - -
29/05:00am 19.7 SE 2 3 1011.7 - 0.0 - - 8 - - - -
29/04:46am 20.0 ESE 2 3 1011.6 - 0.0 - - 8 - - - -
29/04:30am 19.8 ESE 2 2 1011.5 - 0.0 - - 6 - - - -
29/04:00am 20.3 SE 2 3 1011.3 - 0.0 - - 5 - - - -
29/03:37am 20.0 SE 2 3 1011.3 - 0.0 - - 6 - - - -
29/03:30am 19.9 SE 1 2 1011.3 - 0.0 - - 10 - - - -
29/03:00am 20.1 CALM 0 2 1011.3 - 0.0 - - 10 - - - -
29/02:30am 20.8 ESE 2 2 1011.7 - 0.0 - - 10 - - - -
29/02:00am 21.1 ESE 1 1 1011.5 - 0.0 - - 10 - - - -
29/01:30am 21.7 E 3 4 1011.5 - 0.0 - - 10 - - - -
29/01:00am 22.4 E 3 4 1011.8 - 0.0 - - 10 - - - -
29/12:30am 22.8 E 3 4 1011.9 - 0.0 - - 10 - - - -
29/12:00am 23.1 ENE 3 5 1011.8 - 0.0 - - 10 - - - -
 
Date/Time
EST
Temp

°C
Wind Pressure Rain
since 9am
mm
Weather Cloud Vis
km
Sea
Height
m
Swell
Dir
 
Speed
knots
Gust
knots
hPa Trend Height
m
Period
s
Dir
28/11:30pm 23.6 E 3 4 1012.3 - 0.0 - - 10 - - - -
28/11:00pm 24.0 ENE 3 5 1012.1 - 0.0 - - 10 - - - -
28/10:30pm 24.4 NE 4 6 1012.0 - 0.0 - - 10 - - - -
28/10:00pm 24.2 NE 4 5 1011.7 - 0.0 - - 9 - - - -
28/09:44pm 24.0 NE 3 3 1011.8 - 0.0 - - 7 - - - -
28/09:31pm 24.3 NE 3 4 1012.0 - 0.0 - - 6 - - - -
28/09:30pm 24.3 ENE 3 4 1012.0 - 0.0 - - 7 - - - -
28/09:00pm 24.9 E 1 2 1011.7 - 0.0 - - 10 - - - -
28/08:30pm 25.5 ENE 1 3 1011.8 - 0.0 - - 10 - - - -
28/08:00pm 26.4 NE 1 3 1011.6 - 0.0 - - 10 - - - -
28/07:30pm 26.6 S 1 2 1011.3 - 0.0 - - 10 - - - -
28/07:00pm 26.9 NNW 4 6 1010.7 - 0.0 - - 10 - - - -
28/06:30pm 27.5 W 3 6 1010.2 - 0.0 - - 10 - - - -
28/06:00pm 28.0 WSW 4 9 1009.7 - 0.0 - Mostly clear 10 - - - -
28/05:30pm 28.7 W 6 10 1009.5 - 0.0 - - 10 - - - -
28/05:00pm 28.4 W 8 13 1009.2 - 0.0 - Partly cloudy 10 - - - -
28/04:30pm 29.5 W 9 16 1008.8 - 0.0 - Partly cloudy 10 - - - -
28/04:00pm 30.5 W 11 19 1008.4 - 0.0 - Partly cloudy 10 - - - -
28/03:30pm 33.9 NNE 5 10 1008.4 - 0.0 - Partly cloudy 10 - - - -
28/03:00pm 33.8 ENE 6 10 1008.5 F 0.0 Haze Partly cloudy 8 - - - -
28/02:30pm 33.5 NE 5 14 1008.9 - 0.0 - Partly cloudy 10 - - - -
28/02:00pm 32.7 E 7 16 1009.2 - 0.0 - Partly cloudy 9 - - - -
28/01:30pm 32.7 ENE 10 16 1009.8 - 0.0 - Partly cloudy 10 - - - -
28/01:00pm 31.8 NE 6 13 1010.2 - 0.0 - Partly cloudy 10 - - - -
28/12:30pm 32.1 SE 6 12 1011.0 - 0.0 - - 10 - - - -
28/12:00pm 31.7 E 5 10 1011.4 F 0.0 Haze Partly cloudy 20 - - - -
28/11:30am 30.4 E 8 15 1012.1 - 0.0 - Partly cloudy 10 - - - -
28/11:00am 29.8 ESE 9 14 1012.7 - 0.0 - Partly cloudy 10 - - - -
28/10:30am 28.0 ESE 5 12 1013.0 - 0.0 - Partly cloudy 10 - - - -
28/10:00am 28.1 ESE 4 6 1013.4 - 0.0 - Partly cloudy 10 - - - -
28/09:30am 27.6 ESE 7 12 1013.6 - 0.0 - - 10 - - - -
28/09:00am 27.3 ESE 8 12 1013.5 F 0.0 Fine Mostly clear 30 - - - -
28/08:30am 25.8 E 7 10 1013.8 - 0.0 - - 10 - - - -
28/08:00am 24.6 ESE 8 10 1013.7 - 0.0 - Mostly clear 10 - - - -
28/07:30am 23.5 ESE 3 5 1013.4 - 0.0 - - 10 - - - -
28/07:00am 21.6 SE 4 6 1013.1 - 0.0 - Mostly clear 6 - - - -
28/06:30am 20.0 ESE 3 4 1012.7 - 0.0 Smoke Mostly clear 4 - - - -
28/06:00am 19.4 ESE 3 3 1012.3 F 0.0 Haze Mostly clear 3 - - - -
28/05:44am 19.3 ESE 3 3 1012.4 - 0.0 - - 6 - - - -
28/05:30am 19.2 ESE 3 3 1012.2 - 0.0 - - 8 - - - -
28/05:00am 19.5 ESE 3 4 1012.0 - 0.0 - - 10 - - - -
28/04:30am 19.7 ESE 3 3 1011.8 - 0.0 - - 10 - - - -
28/04:00am 20.5 E 3 4 1011.6 - 0.0 - - 10 - - - -
28/03:30am 20.1 E 3 4 1011.6 - 0.0 - - 10 - - - -
28/03:00am 19.7 ESE 1 2 1011.5 - 0.0 - - 10 - - - -
28/02:30am 20.1 E 1 2 1011.6 - 0.0 - - 10 - - - -
28/02:00am 20.4 E 1 1 1011.8 - 0.0 - - 10 - - - -
28/01:30am 21.4 E 1 1 1011.9 - 0.0 - - 10 - - - -
28/01:00am 22.0 NNE 1 1 1012.2 - 0.0 - - 10 - - - -
28/12:30am 23.1 NE 2 3 1012.3 - 0.0 - - 10 - - - -
28/12:00am 23.6 ENE 3 4 1012.3 - 0.0 - - 10 - - - -
 
Date/Time
EST
Temp

°C
Wind Pressure Rain
since 9am
mm
Weather Cloud Vis
km
Sea
Height
m
Swell
Dir
 
Speed
knots
Gust
knots
hPa Trend Height
m
Period
s
Dir
27/11:30pm 24.4 NE 3 5 1012.7 - 0.0 - Partly cloudy 10 - - - -
27/11:00pm 23.6 NE 3 4 1012.9 - 0.0 - Partly cloudy 10 - - - -
27/10:30pm 23.8 NNE 3 4 1013.1 - 0.0 - - 10 - - - -

Other Formats:

Comma delimited format used in spreadsheet applications
http://www.bom.gov.au/fwo/IDQ60701/IDQ60701.94170.axf

JavaScript Object Notation format (JSON) in row-major order
http://www.bom.gov.au/fwo/IDQ60701/IDQ60701.94170.json